Time;durP1;ratioP1;P1;durP2;ratioP2;P2;SDS_P1;SDS_P2;PMS_P1;PMS_P2;Temp;Humidity;BMP_temperature;BMP_pressure;BME280_temperature;BME280_humidity;BME280_pressure;Samples;Min_cycle;Max_cycle;Signal;HPM_P1;HPM_P2
2022/10/18 00:01:34;;;;;;;30.98;12.20;;;;;;;;;;6277797;22;20009;-90
2022/10/18 00:04:00;;;;;;;20.58;11.77;;;;;;;;;;6278030;22;20003;-91
2022/10/18 00:06:26;;;;;;;26.83;11.77;;;;;;;;;;6279481;22;20003;-91
2022/10/18 00:08:52;;;;;;;26.95;11.65;;;;;;;;;;6304295;22;20048;-90
2022/10/18 00:11:18;;;;;;;31.33;13.27;;;;;;;;;;6305392;22;20003;-91
2022/10/18 00:13:44;;;;;;;33.40;14.95;;;;;;;;;;6277475;22;20090;-91
2022/10/18 00:16:11;;;;;;;32.33;15.20;;;;;;;;;;6277617;22;20086;-91
2022/10/18 00:18:37;;;;;;;30.17;14.82;;;;;;;;;;6277787;22;20090;-91
2022/10/18 00:21:05;;;;;;;32.03;14.05;;;;;;;;;;6277826;22;20003;-91
2022/10/18 00:23:31;;;;;;;37.23;15.30;;;;;;;;;;6277267;22;20083;-90
2022/10/18 00:25:58;;;;;;;29.83;15.00;;;;;;;;;;6278934;22;20343;-91
2022/10/18 00:28:24;;;;;;;30.75;15.88;;;;;;;;;;6305361;22;20019;-90
2022/10/18 00:30:50;;;;;;;30.50;15.18;;;;;;;;;;6276730;22;20007;-90
2022/10/18 00:33:16;;;;;;;35.80;15.13;;;;;;;;;;6276861;22;19999;-90
2022/10/18 00:35:42;;;;;;;30.98;15.43;;;;;;;;;;6277310;22;20041;-91
2022/10/18 00:38:08;;;;;;;38.80;16.13;;;;;;;;;;6304517;22;20442;-91
2022/10/18 00:40:34;;;;;;;41.67;16.50;;;;;;;;;;6276796;22;20100;-91
2022/10/18 00:43:00;;;;;;;38.65;16.13;;;;;;;;;;6304703;22;20006;-90
2022/10/18 00:45:26;;;;;;;43.13;15.57;;;;;;;;;;6305540;22;20428;-90
2022/10/18 00:47:56;;;;;;;33.38;17.58;;;;;;;;;;6304446;22;20392;-91
2022/10/18 00:50:22;;;;;;;35.03;16.00;;;;;;;;;;6277195;22;19999;-90
2022/10/18 00:52:52;;;;;;;38.30;16.80;;;;;;;;;;6277232;22;20255;-90
2022/10/18 00:55:18;;;;;;;35.83;15.60;;;;;;;;;;6276925;22;20065;-90
2022/10/18 00:57:45;;;;;;;31.15;15.57;;;;;;;;;;6277527;22;20486;-91
2022/10/18 01:00:12;;;;;;;29.55;16.63;;;;;;;;;;6276866;22;20336;-91
2022/10/18 01:02:40;;;;;;;40.97;17.30;;;;;;;;;;6277597;22;20004;-90
2022/10/18 01:05:07;;;;;;;42.67;16.90;;;;;;;;;;6304521;22;20010;-90
2022/10/18 01:07:33;;;;;;;52.83;18.75;;;;;;;;;;6276921;22;20347;-90
2022/10/18 01:10:04;;;;;;;45.05;18.80;;;;;;;;;;6277776;22;20003;-91
2022/10/18 01:12:37;;;;;;;43.00;17.40;;;;;;;;;;6277027;22;20474;-90
2022/10/18 01:15:26;;;;;;;53.58;20.58;;;;;;;;;;6304259;22;20015;-91
2022/10/18 01:18:04;;;;;;;53.85;19.58;;;;;;;;;;6234909;22;20005;-90
2022/10/18 01:20:33;;;;;;;57.30;21.73;;;;;;;;;;6277410;22;20003;-91
2022/10/18 01:23:06;;;;;;;54.30;21.38;;;;;;;;;;6278324;22;20339;-91
2022/10/18 01:25:50;;;;;;;57.72;20.45;;;;;;;;;;6277050;22;19999;-90
2022/10/18 01:28:35;;;;;;;56.90;21.35;;;;;;;;;;6304402;22;20066;-90
2022/10/18 01:31:03;;;;;;;53.88;22.13;;;;;;;;;;6277200;22;20004;-91
2022/10/18 01:33:29;;;;;;;;;;;;;;;;;;6278258;22;20011;-91
2022/10/18 01:36:18;;;;;;;54.13;22.02;;;;;;;;;;6304162;22;19902;-91
2022/10/18 01:38:44;;;;;;;55.83;22.35;;;;;;;;;;6292372;22;20040;-90
2022/10/18 01:41:11;;;;;;;61.10;22.70;;;;;;;;;;6276823;22;19999;-90
2022/10/18 01:43:39;;;;;;;57.08;22.80;;;;;;;;;;6278373;22;20006;-90
2022/10/18 01:46:05;;;;;;;62.65;24.90;;;;;;;;;;6279453;22;20011;-90
2022/10/18 01:48:32;;;;;;;59.47;24.17;;;;;;;;;;6279957;22;20046;-90
2022/10/18 01:50:58;;;;;;;49.35;22.98;;;;;;;;;;6280100;22;20007;-90
2022/10/18 01:53:32;;;;;;;64.38;22.33;;;;;;;;;;6278639;22;20604;-91
2022/10/18 01:56:24;;;;;;;47.50;22.85;;;;;;;;;;6280013;22;20007;-89
2022/10/18 01:58:58;;;;;;;60.22;23.83;;;;;;;;;;6274737;22;20003;-90
2022/10/18 02:01:53;;;;;;;64.07;24.70;;;;;;;;;;6278857;22;20007;-90
2022/10/18 02:04:19;;;;;;;59.33;23.85;;;;;;;;;;6259197;22;20007;-90
2022/10/18 02:06:51;;;;;;;56.22;24.40;;;;;;;;;;6278755;22;20376;-90
2022/10/18 02:09:27;;;;;;;68.45;24.88;;;;;;;;;;6278972;22;20084;-91
2022/10/18 02:11:54;;;;;;;56.90;23.65;;;;;;;;;;6278425;22;20269;-90
2022/10/18 02:14:22;;;;;;;53.40;23.33;;;;;;;;;;6305988;22;20459;-91
2022/10/18 02:16:48;;;;;;;;;;;;;;;;;;6279265;22;20014;-90
2022/10/18 02:19:17;;;;;;;72.00;25.00;;;;;;;;;;6279058;22;20301;-91
2022/10/18 02:21:45;;;;;;;61.53;24.55;;;;;;;;;;6278596;22;20010;-90
2022/10/18 02:24:13;;;;;;;62.47;25.02;;;;;;;;;;6278670;22;20003;-91
2022/10/18 02:26:39;;;;;;;57.05;23.70;;;;;;;;;;6305545;22;19996;-91
2022/10/18 02:29:08;;;;;;;55.25;24.55;;;;;;;;;;6278801;22;20057;-91
2022/10/18 02:31:45;;;;;;;80.53;25.17;;;;;;;;;;6280443;22;20003;-90
2022/10/18 02:34:44;;;;;;;57.90;22.80;;;;;;;;;;6278447;22;20003;-91
2022/10/18 02:37:10;;;;;;;62.60;23.27;;;;;;;;;;6228706;22;20008;-91
2022/10/18 02:39:39;;;;;;;47.88;23.02;;;;;;;;;;6278238;22;20063;-91
2022/10/18 02:42:08;;;;;;;;;;;;;;;;;;6279841;22;20007;-91
2022/10/18 02:44:35;;;;;;;60.40;22.52;;;;;;;;;;6279237;22;20281;-90
2022/10/18 02:47:01;;;;;;;38.90;22.88;;;;;;;;;;6279044;22;20008;-90
2022/10/18 02:49:27;;;;;;;57.22;21.52;;;;;;;;;;6278643;22;19999;-91
2022/10/18 02:51:53;;;;;;;45.67;21.45;;;;;;;;;;6278109;22;20336;-90
2022/10/18 02:54:19;;;;;;;47.85;22.08;;;;;;;;;;6277876;22;20018;-90
2022/10/18 02:56:45;;;;;;;42.72;21.77;;;;;;;;;;6278347;22;20003;-90
2022/10/18 02:59:12;;;;;;;42.63;21.05;;;;;;;;;;6305810;22;20003;-90
2022/10/18 03:01:38;;;;;;;66.90;21.48;;;;;;;;;;6278367;22;20419;-91
2022/10/18 03:04:04;;;;;;;65.93;22.27;;;;;;;;;;6279265;22;20031;-90
2022/10/18 03:06:31;;;;;;;41.65;21.02;;;;;;;;;;6278169;22;20003;-90
2022/10/18 03:08:57;;;;;;;43.10;19.98;;;;;;;;;;6279016;22;20307;-91
2022/10/18 03:11:23;;;;;;;54.35;20.73;;;;;;;;;;6278609;22;20047;-91
2022/10/18 03:13:50;;;;;;;42.85;20.90;;;;;;;;;;6278884;22;20122;-90
2022/10/18 03:16:17;;;;;;;59.60;21.80;;;;;;;;;;6278019;22;20082;-90
2022/10/18 03:18:43;;;;;;;59.33;21.45;;;;;;;;;;6278151;22;20003;-91
2022/10/18 03:21:09;;;;;;;53.65;21.92;;;;;;;;;;6278658;22;19999;-91
2022/10/18 03:23:35;;;;;;;44.42;22.52;;;;;;;;;;6279304;22;20068;-90
2022/10/18 03:26:01;;;;;;;50.33;22.20;;;;;;;;;;6278307;22;20043;-90
2022/10/18 03:28:28;;;;;;;93.15;25.25;;;;;;;;;;6278419;22;20308;-91
2022/10/18 03:30:58;;;;;;;59.75;22.55;;;;;;;;;;6278100;22;20138;-91
2022/10/18 03:33:24;;;;;;;48.45;21.33;;;;;;;;;;6278166;22;20003;-90
2022/10/18 03:35:50;;;;;;;82.88;24.90;;;;;;;;;;6277984;22;20045;-90
2022/10/18 03:38:16;;;;;;;45.83;22.13;;;;;;;;;;6278309;22;20025;-90
2022/10/18 03:40:42;;;;;;;44.40;22.08;;;;;;;;;;6278009;22;19999;-91
2022/10/18 03:43:09;;;;;;;45.88;21.15;;;;;;;;;;6278351;22;20086;-91
2022/10/18 03:45:35;;;;;;;67.30;22.80;;;;;;;;;;6278409;22;20121;-90
2022/10/18 03:48:01;;;;;;;77.85;22.98;;;;;;;;;;6277515;22;19999;-91
2022/10/18 03:50:27;;;;;;;66.15;23.13;;;;;;;;;;6278307;22;19995;-90
2022/10/18 03:52:54;;;;;;;54.50;22.23;;;;;;;;;;6278043;22;20324;-90
2022/10/18 03:55:20;;;;;;;50.38;23.10;;;;;;;;;;6278046;22;20022;-89
2022/10/18 03:57:46;;;;;;;42.63;22.02;;;;;;;;;;6304607;22;20370;-91
2022/10/18 04:00:12;;;;;;;42.47;20.80;;;;;;;;;;6278132;22;20003;-90
2022/10/18 04:02:39;;;;;;;68.85;22.45;;;;;;;;;;6278744;22;20336;-91
2022/10/18 04:05:06;;;;;;;47.95;21.73;;;;;;;;;;6278406;22;20345;-91
2022/10/18 04:07:32;;;;;;;43.17;21.23;;;;;;;;;;6277699;22;20003;-91
2022/10/18 04:09:58;;;;;;;51.80;22.40;;;;;;;;;;6278086;22;20033;-91
2022/10/18 04:12:24;;;;;;;45.90;22.30;;;;;;;;;;6277819;22;20003;-91
2022/10/18 04:14:50;;;;;;;54.28;23.88;;;;;;;;;;6304728;22;20011;-91
2022/10/18 04:17:16;;;;;;;52.78;23.40;;;;;;;;;;6278106;22;20331;-90
2022/10/18 04:19:43;;;;;;;55.53;21.80;;;;;;;;;;6277131;22;20003;-91
2022/10/18 04:22:10;;;;;;;41.22;20.13;;;;;;;;;;6278920;22;20440;-90
2022/10/18 04:24:36;;;;;;;49.40;20.65;;;;;;;;;;6278209;22;19999;-91
2022/10/18 04:27:03;;;;;;;47.05;21.90;;;;;;;;;;6277779;22;20014;-90
2022/10/18 04:29:29;;;;;;;46.05;21.25;;;;;;;;;;6305148;22;20344;-90
2022/10/18 04:31:55;;;;;;;49.25;21.25;;;;;;;;;;6277025;22;20467;-91
2022/10/18 04:34:22;;;;;;;37.83;19.83;;;;;;;;;;6278213;22;20011;-91
2022/10/18 04:36:48;;;;;;;46.17;20.60;;;;;;;;;;6277634;22;20351;-90
2022/10/18 04:39:14;;;;;;;51.75;20.13;;;;;;;;;;6304868;22;20003;-89
2022/10/18 04:41:40;;;;;;;57.00;21.63;;;;;;;;;;6278022;22;20055;-90
2022/10/18 04:44:06;;;;;;;55.83;21.23;;;;;;;;;;6277777;22;20004;-90
2022/10/18 04:46:33;;;;;;;58.53;20.23;;;;;;;;;;6304836;22;20013;-91
2022/10/18 04:49:00;;;;;;;44.20;19.90;;;;;;;;;;6304823;22;19995;-90
2022/10/18 04:51:27;;;;;;;61.80;22.10;;;;;;;;;;6277292;22;20027;-89
2022/10/18 04:53:53;;;;;;;48.00;20.95;;;;;;;;;;6304511;22;20007;-90
2022/10/18 04:56:19;;;;;;;41.50;20.83;;;;;;;;;;6277695;22;20003;-90
2022/10/18 04:58:45;;;;;;;45.45;21.55;;;;;;;;;;6277783;22;20035;-92
2022/10/18 05:01:12;;;;;;;36.10;19.73;;;;;;;;;;6278150;22;20349;-90
2022/10/18 05:03:38;;;;;;;50.83;20.30;;;;;;;;;;6278783;22;20507;-90
2022/10/18 05:06:04;;;;;;;44.78;18.95;;;;;;;;;;6279188;22;20069;-90
2022/10/18 05:08:39;;;;;;;42.33;20.27;;;;;;;;;;6279240;22;19999;-92
2022/10/18 05:11:05;;;;;;;40.17;18.95;;;;;;;;;;6277086;22;20003;-90
2022/10/18 05:13:31;;;;;;;38.67;19.55;;;;;;;;;;6277014;22;20325;-90
2022/10/18 05:15:59;;;;;;;52.10;19.85;;;;;;;;;;6304435;22;20019;-90
2022/10/18 05:18:25;;;;;;;43.88;18.95;;;;;;;;;;6277041;22;20027;-90
2022/10/18 05:20:51;;;;;;;38.63;17.40;;;;;;;;;;6304149;22;19999;-90
2022/10/18 05:23:17;;;;;;;41.28;18.25;;;;;;;;;;6276992;22;20007;-90
2022/10/18 05:25:43;;;;;;;35.70;17.48;;;;;;;;;;6277153;22;20344;-90
2022/10/18 05:28:09;;;;;;;34.80;16.67;;;;;;;;;;6276616;22;20010;-90
2022/10/18 05:30:39;;;;;;;36.50;16.83;;;;;;;;;;6303200;22;20007;-90
2022/10/18 05:33:05;;;;;;;37.50;17.02;;;;;;;;;;6276122;22;20014;-90
2022/10/18 05:35:32;;;;;;;34.58;17.02;;;;;;;;;;6270844;22;20081;-90
2022/10/18 05:37:58;;;;;;;35.17;17.40;;;;;;;;;;6274324;22;20003;-90
2022/10/18 05:40:24;;;;;;;39.95;18.17;;;;;;;;;;6275232;22;20010;-90
2022/10/18 05:42:53;;;;;;;30.13;15.98;;;;;;;;;;6275217;22;20003;-90
2022/10/18 05:45:21;;;;;;;32.40;16.90;;;;;;;;;;6274756;22;20008;-90
2022/10/18 05:47:47;;;;;;;36.92;17.55;;;;;;;;;;6301697;22;19999;-90
2022/10/18 05:50:13;;;;;;;40.10;17.25;;;;;;;;;;6302539;22;19999;-91
2022/10/18 05:52:40;;;;;;;34.20;15.82;;;;;;;;;;6302423;22;20026;-89
2022/10/18 05:55:06;;;;;;;33.38;15.70;;;;;;;;;;6275406;22;20022;-89
2022/10/18 05:57:34;;;;;;;37.10;15.73;;;;;;;;;;6273846;22;20003;-90
2022/10/18 06:00:00;;;;;;;;;;;;;;;;;;6273630;22;20064;-88
2022/10/18 06:02:26;;;;;;;33.85;15.07;;;;;;;;;;6276105;22;19899;-88
2022/10/18 06:04:52;;;;;;;35.38;15.98;;;;;;;;;;6276084;22;20008;-89
2022/10/18 06:07:18;;;;;;;33.25;17.02;;;;;;;;;;6275323;22;20006;-89
2022/10/18 06:09:45;;;;;;;34.88;16.00;;;;;;;;;;6275983;22;20003;-89
2022/10/18 06:12:11;;;;;;;36.58;16.63;;;;;;;;;;6303334;22;19995;-89
2022/10/18 06:14:37;;;;;;;40.25;15.68;;;;;;;;;;6275201;22;20011;-89
2022/10/18 06:17:03;;;;;;;38.63;16.05;;;;;;;;;;6275760;22;20031;-90
2022/10/18 06:19:29;;;;;;;35.22;17.77;;;;;;;;;;6276035;22;20015;-90
2022/10/18 06:21:55;;;;;;;42.78;16.20;;;;;;;;;;6275490;22;20333;-90
2022/10/18 06:24:22;;;;;;;36.45;17.15;;;;;;;;;;6275119;22;20003;-89
2022/10/18 06:26:48;;;;;;;52.40;17.77;;;;;;;;;;6275479;22;19999;-90
2022/10/18 06:29:17;;;;;;;37.08;16.77;;;;;;;;;;6276416;22;20003;-92
2022/10/18 06:31:43;;;;;;;39.17;16.63;;;;;;;;;;6278061;22;20003;-90
2022/10/18 06:34:09;;;;;;;41.28;17.70;;;;;;;;;;6304236;22;20023;-90
2022/10/18 06:36:35;;;;;;;41.25;19.33;;;;;;;;;;6276783;22;20084;-91
2022/10/18 06:39:01;;;;;;;37.30;18.40;;;;;;;;;;6277109;22;20432;-89
2022/10/18 06:41:27;;;;;;;38.17;18.50;;;;;;;;;;6276628;22;20460;-89
2022/10/18 06:43:56;;;;;;;45.38;18.60;;;;;;;;;;6273498;22;20431;-89
2022/10/18 06:46:22;;;;;;;46.35;17.50;;;;;;;;;;6272122;22;20514;-88
2022/10/18 06:48:48;;;;;;;36.72;17.73;;;;;;;;;;6276383;22;20005;-88
2022/10/18 06:51:14;;;;;;;34.75;16.65;;;;;;;;;;6304327;22;20003;-87
2022/10/18 06:53:41;;;;;;;36.95;16.25;;;;;;;;;;6275863;22;20069;-88
2022/10/18 06:56:08;;;;;;;37.90;16.08;;;;;;;;;;6276159;22;20795;-88
2022/10/18 06:58:34;;;;;;;38.28;15.55;;;;;;;;;;6275876;22;20003;-88
2022/10/18 07:01:11;;;;;;;39.45;16.80;;;;;;;;;;6274964;22;20089;-89
2022/10/18 07:03:37;;;;;;;38.30;16.55;;;;;;;;;;6303105;22;20328;-88
2022/10/18 07:06:04;;;;;;;38.55;17.55;;;;;;;;;;6276111;22;20003;-89
2022/10/18 07:08:30;;;;;;;41.03;18.45;;;;;;;;;;6274596;22;20025;-89
2022/10/18 07:10:56;;;;;;;40.80;17.30;;;;;;;;;;6300901;22;20033;-89
2022/10/18 07:13:22;;;;;;;36.95;17.50;;;;;;;;;;6274062;22;20029;-89
2022/10/18 07:15:48;;;;;;;43.92;17.67;;;;;;;;;;6275854;22;20329;-89
2022/10/18 07:18:14;;;;;;;44.55;19.08;;;;;;;;;;6276867;22;20068;-89
2022/10/18 07:20:40;;;;;;;40.30;17.17;;;;;;;;;;6275814;22;20010;-89
2022/10/18 07:23:08;;;;;;;36.10;16.40;;;;;;;;;;6276000;22;20132;-89
2022/10/18 07:25:34;;;;;;;35.07;16.43;;;;;;;;;;6303509;22;20450;-89
2022/10/18 07:28:00;;;;;;;37.13;16.50;;;;;;;;;;6302778;22;20033;-91
2022/10/18 07:30:26;;;;;;;38.97;16.38;;;;;;;;;;6302592;22;20444;-89
2022/10/18 07:32:52;;;;;;;32.50;15.43;;;;;;;;;;6301952;22;20053;-89
2022/10/18 07:35:19;;;;;;;37.03;16.33;;;;;;;;;;6302960;22;20447;-89
2022/10/18 07:37:45;;;;;;;39.05;15.10;;;;;;;;;;6304271;22;19999;-89
2022/10/18 07:40:11;;;;;;;30.45;15.40;;;;;;;;;;6303274;22;20010;-89
2022/10/18 07:42:37;;;;;;;32.67;15.00;;;;;;;;;;6302931;22;19999;-89
2022/10/18 07:45:03;;;;;;;31.17;14.93;;;;;;;;;;6277546;22;20007;-89
2022/10/18 07:47:30;;;;;;;29.38;15.02;;;;;;;;;;6302805;22;20010;-90
2022/10/18 07:49:56;;;;;;;31.23;13.63;;;;;;;;;;6276718;22;20462;-89
2022/10/18 07:52:22;;;;;;;28.63;14.32;;;;;;;;;;6276008;22;20003;-88
2022/10/18 07:54:48;;;;;;;35.65;13.70;;;;;;;;;;6304099;22;20007;-89
2022/10/18 07:57:14;;;;;;;31.48;13.98;;;;;;;;;;6275646;22;20003;-89
2022/10/18 07:59:40;;;;;;;33.70;13.23;;;;;;;;;;6275571;22;20009;-89
2022/10/18 08:02:06;;;;;;;34.55;13.75;;;;;;;;;;6302111;22;20022;-88
2022/10/18 08:04:32;;;;;;;35.88;13.55;;;;;;;;;;6302420;22;20007;-89
2022/10/18 08:06:58;;;;;;;31.02;12.57;;;;;;;;;;6275959;22;20069;-88
2022/10/18 08:09:24;;;;;;;31.23;13.07;;;;;;;;;;6275822;22;20042;-88
2022/10/18 08:11:50;;;;;;;28.50;11.77;;;;;;;;;;6276360;22;20003;-91
2022/10/18 08:14:16;;;;;;;38.95;13.73;;;;;;;;;;6276597;22;20436;-89
2022/10/18 08:16:42;;;;;;;29.02;13.18;;;;;;;;;;6302681;22;20015;-88
2022/10/18 08:19:08;;;;;;;25.20;12.57;;;;;;;;;;6302008;22;19996;-88
2022/10/18 08:21:34;;;;;;;25.65;12.50;;;;;;;;;;6302596;22;20041;-89
2022/10/18 08:24:00;;;;;;;31.23;13.30;;;;;;;;;;6302675;22;20074;-90
2022/10/18 08:26:26;;;;;;;35.30;13.20;;;;;;;;;;6302749;22;20523;-88
2022/10/18 08:28:52;;;;;;;30.48;12.77;;;;;;;;;;6275286;22;20042;-90
2022/10/18 08:31:19;;;;;;;24.25;12.98;;;;;;;;;;6276598;22;20011;-89
2022/10/18 08:33:46;;;;;;;29.10;13.25;;;;;;;;;;6275065;22;20008;-89
2022/10/18 08:36:13;;;;;;;27.92;11.95;;;;;;;;;;6275274;22;20007;-88
2022/10/18 08:38:40;;;;;;;27.07;12.63;;;;;;;;;;6302385;22;20037;-88
2022/10/18 08:41:17;;;;;;;29.45;12.75;;;;;;;;;;6302631;22;20347;-89
2022/10/18 08:43:46;;;;;;;21.02;11.52;;;;;;;;;;6302954;22;20029;-89
2022/10/18 08:46:12;;;;;;;24.95;11.57;;;;;;;;;;6275626;22;20281;-88
2022/10/18 08:48:43;;;;;;;28.45;11.88;;;;;;;;;;6276550;22;20011;-90
2022/10/18 08:51:26;;;;;;;32.00;11.93;;;;;;;;;;6302846;22;20004;-89
2022/10/18 08:54:00;;;;;;;26.25;12.30;;;;;;;;;;6303484;22;20035;-88
2022/10/18 08:56:26;;;;;;;32.08;12.55;;;;;;;;;;6275045;22;20011;-89
2022/10/18 08:58:52;;;;;;;33.65;11.93;;;;;;;;;;6274917;22;20046;-89
2022/10/18 09:01:31;;;;;;;25.98;11.77;;;;;;;;;;6276220;22;20003;-88
2022/10/18 09:03:57;;;;;;;32.60;12.52;;;;;;;;;;6274580;22;20003;-88
2022/10/18 09:06:34;;;;;;;32.08;12.65;;;;;;;;;;6275529;22;20340;-89
2022/10/18 09:09:06;;;;;;;32.38;11.82;;;;;;;;;;6274779;22;20083;-89
2022/10/18 09:11:46;;;;;;;33.53;11.18;;;;;;;;;;6275262;22;20003;-89
2022/10/18 09:14:22;;;;;;;30.27;12.20;;;;;;;;;;6274766;22;20045;-89
2022/10/18 09:16:54;;;;;;;35.75;12.60;;;;;;;;;;6274534;22;20448;-88
2022/10/18 09:19:34;;;;;;;35.70;13.35;;;;;;;;;;6275943;22;20008;-89
2022/10/18 09:22:20;;;;;;;30.95;13.23;;;;;;;;;;6302681;22;20000;-88
2022/10/18 09:24:46;;;;;;;30.95;12.63;;;;;;;;;;6274992;22;20018;-89
2022/10/18 09:27:17;;;;;;;45.80;14.68;;;;;;;;;;6274874;22;20001;-90
2022/10/18 09:29:43;;;;;;;44.28;14.82;;;;;;;;;;6275034;22;20043;-89
2022/10/18 09:32:21;;;;;;;34.45;15.95;;;;;;;;;;6301871;22;19995;-90
2022/10/18 09:34:51;;;;;;;37.40;14.82;;;;;;;;;;6274606;22;20090;-90
2022/10/18 09:37:19;;;;;;;26.10;12.35;;;;;;;;;;6274753;22;20444;-89
2022/10/18 09:39:46;;;;;;;29.65;12.70;;;;;;;;;;6274756;22;20310;-88
2022/10/18 09:42:27;;;;;;;31.92;10.48;;;;;;;;;;6275548;22;19995;-89
2022/10/18 09:45:01;;;;;;;33.63;10.82;;;;;;;;;;6274898;22;20035;-89
2022/10/18 09:47:32;;;;;;;18.67;9.13;;;;;;;;;;6274895;22;20389;-91
2022/10/18 09:50:00;;;;;;;22.92;9.85;;;;;;;;;;6274631;22;20007;-89
2022/10/18 09:52:26;;;;;;;;;;;;;;;;;;6303051;22;20029;-90
2022/10/18 09:55:03;;;;;;;23.35;10.18;;;;;;;;;;6275253;22;19907;-89
2022/10/18 09:57:35;;;;;;;23.17;9.40;;;;;;;;;;6275236;22;20090;-90
2022/10/18 10:00:04;;;;;;;35.70;8.85;;;;;;;;;;6275179;22;20420;-91
2022/10/18 10:02:30;;;;;;;23.60;7.70;;;;;;;;;;6302402;22;20053;-92
2022/10/18 10:04:56;;;;;;;25.30;8.13;;;;;;;;;;6276671;22;20007;-88
2022/10/18 10:07:27;;;;;;;16.23;7.15;;;;;;;;;;6304977;22;19995;-89
2022/10/18 10:09:57;;;;;;;21.10;7.30;;;;;;;;;;6305125;22;20003;-89
2022/10/18 10:12:23;;;;;;;13.35;6.25;;;;;;;;;;6305448;22;19999;-91
2022/10/18 10:14:49;;;;;;;18.50;6.60;;;;;;;;;;6276481;22;20467;-89
2022/10/18 10:17:26;;;;;;;17.65;6.40;;;;;;;;;;6276264;22;20093;-89
2022/10/18 10:20:02;;;;;;;15.82;6.38;;;;;;;;;;6278025;22;20435;-91
2022/10/18 10:22:47;;;;;;;13.85;6.97;;;;;;;;;;6308720;22;20344;-89
2022/10/18 10:25:29;;;;;;;12.95;8.23;;;;;;;;;;6277547;22;20003;-90
2022/10/18 10:27:55;;;;;;;14.60;6.53;;;;;;;;;;6306124;22;20002;-91
2022/10/18 10:30:29;;;;;;;17.55;6.80;;;;;;;;;;6306982;22;20457;-90
2022/10/18 10:32:56;;;;;;;16.10;6.75;;;;;;;;;;6279780;22;20018;-92
2022/10/18 10:35:36;;;;;;;15.55;6.60;;;;;;;;;;6277701;22;20483;-90
2022/10/18 10:38:02;;;;;;;14.15;6.38;;;;;;;;;;6305100;22;19995;-90
2022/10/18 10:40:33;;;;;;;15.00;6.20;;;;;;;;;;6305314;22;20003;-91
2022/10/18 10:43:02;;;;;;;14.95;6.38;;;;;;;;;;6277277;22;20006;-89
2022/10/18 10:45:31;;;;;;;22.25;6.90;;;;;;;;;;6304866;22;20031;-90
2022/10/18 10:48:02;;;;;;;14.15;6.30;;;;;;;;;;6277623;22;20030;-90
2022/10/18 10:50:30;;;;;;;14.07;6.57;;;;;;;;;;6277823;22;20003;-91
2022/10/18 10:52:56;;;;;;;13.30;6.43;;;;;;;;;;6305118;22;20448;-90
2022/10/18 10:55:26;;;;;;;17.98;6.80;;;;;;;;;;6276852;22;20053;-91
2022/10/18 10:57:53;;;;;;;20.67;6.70;;;;;;;;;;6277619;22;20336;-90
2022/10/18 11:00:35;;;;;;;17.77;7.55;;;;;;;;;;6277654;22;20090;-90
2022/10/18 11:03:22;;;;;;;18.88;7.35;;;;;;;;;;6299599;22;20003;-91
2022/10/18 11:05:54;;;;;;;20.90;6.40;;;;;;;;;;6304084;22;20053;-90
2022/10/18 11:08:23;;;;;;;18.90;7.30;;;;;;;;;;6304367;22;20008;-90
2022/10/18 11:11:11;;;;;;;22.40;8.60;;;;;;;;;;6304142;22;20037;-89
2022/10/18 11:13:58;;;;;;;15.70;8.02;;;;;;;;;;6276738;22;20010;-89
2022/10/18 11:16:32;;;;;;;21.50;8.02;;;;;;;;;;6275589;22;20007;-89
2022/10/18 11:18:59;;;;;;;15.40;7.25;;;;;;;;;;6277704;22;20014;-90
2022/10/18 11:21:27;;;;;;;16.05;7.43;;;;;;;;;;6277375;22;20003;-91
2022/10/18 11:23:53;;;;;;;23.53;7.17;;;;;;;;;;6276700;22;20014;-90
2022/10/18 11:26:38;;;;;;;16.80;7.45;;;;;;;;;;6276514;22;20221;-90
2022/10/18 11:29:24;;;;;;;11.80;6.82;;;;;;;;;;6276231;22;20007;-88
2022/10/18 11:31:55;;;;;;;18.52;7.22;;;;;;;;;;6302852;22;20285;-90
2022/10/18 11:34:48;;;;;;;18.42;7.43;;;;;;;;;;6276413;22;20049;-91
2022/10/18 11:37:37;;;;;;;15.98;6.63;;;;;;;;;;6271993;22;20064;-89
2022/10/18 11:40:25;;;;;;;16.17;8.10;;;;;;;;;;6266337;22;20457;-88
2022/10/18 11:43:00;;;;;;;20.75;8.05;;;;;;;;;;6276461;22;20524;-88
2022/10/18 11:45:32;;;;;;;23.45;8.02;;;;;;;;;;6276245;22;20014;-90
2022/10/18 11:47:58;;;;;;;25.67;8.63;;;;;;;;;;6277663;22;20003;-89
2022/10/18 11:50:41;;;;;;;19.30;8.75;;;;;;;;;;6276352;22;20082;-93
2022/10/18 11:53:10;;;;;;;21.05;9.30;;;;;;;;;;6276470;22;20356;-90
2022/10/18 11:55:48;;;;;;;21.20;8.48;;;;;;;;;;6276060;22;20221;-89
2022/10/18 11:58:17;;;;;;;19.65;9.43;;;;;;;;;;6275846;22;20027;-89
2022/10/18 12:00:47;;;;;;;22.73;9.10;;;;;;;;;;6276421;22;20003;-89
2022/10/18 12:03:16;;;;;;;24.77;9.25;;;;;;;;;;6275097;22;20443;-88
2022/10/18 12:05:46;;;;;;;20.05;8.75;;;;;;;;;;6275798;22;20003;-89
2022/10/18 12:08:14;;;;;;;21.33;9.77;;;;;;;;;;6276264;22;20007;-90
2022/10/18 12:10:41;;;;;;;21.90;9.55;;;;;;;;;;6277406;22;20007;-93
2022/10/18 12:13:12;;;;;;;23.90;9.77;;;;;;;;;;6304682;22;20003;-91
2022/10/18 12:15:39;;;;;;;23.40;9.68;;;;;;;;;;6276525;22;20026;-91
2022/10/18 12:18:07;;;;;;;20.75;9.32;;;;;;;;;;6277337;22;20086;-91
2022/10/18 12:20:39;;;;;;;20.77;9.40;;;;;;;;;;6304336;22;19999;-90
2022/10/18 12:23:10;;;;;;;21.70;10.30;;;;;;;;;;6276567;22;20005;-92
2022/10/18 12:25:38;;;;;;;24.30;9.57;;;;;;;;;;6276877;22;20064;-91
2022/10/18 12:28:22;;;;;;;28.05;9.52;;;;;;;;;;6277460;22;20454;-90
2022/10/18 12:31:07;;;;;;;24.20;10.13;;;;;;;;;;6276563;22;20007;-90
2022/10/18 12:33:38;;;;;;;22.90;10.93;;;;;;;;;;6304464;22;19995;-89
2022/10/18 12:36:04;;;;;;;32.08;10.75;;;;;;;;;;6276834;22;20016;-89
2022/10/18 12:38:36;;;;;;;27.50;11.40;;;;;;;;;;6277930;22;20034;-90
2022/10/18 12:41:05;;;;;;;28.67;12.23;;;;;;;;;;6304420;22;20041;-91
2022/10/18 12:43:38;;;;;;;26.75;11.75;;;;;;;;;;6277606;22;20507;-91
2022/10/18 12:46:05;;;;;;;36.75;11.63;;;;;;;;;;6275983;22;20145;-89
2022/10/18 12:48:31;;;;;;;34.55;13.70;;;;;;;;;;6304961;22;20000;-91
2022/10/18 12:51:17;;;;;;;28.55;13.07;;;;;;;;;;6303628;22;19999;-90
2022/10/18 12:53:45;;;;;;;30.50;12.95;;;;;;;;;;6276225;22;20003;-91
2022/10/18 12:56:40;;;;;;;38.55;11.65;;;;;;;;;;6276601;22;20427;-91
2022/10/18 12:59:15;;;;;;;35.60;12.48;;;;;;;;;;6273063;22;20011;-92
2022/10/18 13:01:51;;;;;;;32.17;13.52;;;;;;;;;;6279262;22;20007;-91
2022/10/18 13:04:26;;;;;;;39.53;13.35;;;;;;;;;;6280929;22;20003;-89
2022/10/18 13:06:59;;;;;;;37.78;13.73;;;;;;;;;;6278354;22;20014;-91
2022/10/18 13:09:26;;;;;;;34.78;13.30;;;;;;;;;;6303466;22;20129;-89
2022/10/18 13:11:57;;;;;;;30.25;13.02;;;;;;;;;;6277031;22;20007;-90
2022/10/18 13:14:36;;;;;;;33.95;13.23;;;;;;;;;;6276504;22;20008;-90
2022/10/18 13:17:20;;;;;;;32.15;13.38;;;;;;;;;;6303518;22;20011;-91
2022/10/18 13:19:52;;;;;;;41.85;13.98;;;;;;;;;;6277399;22;20045;-92
2022/10/18 13:22:37;;;;;;;40.67;13.25;;;;;;;;;;6276259;22;20135;-90
2022/10/18 13:25:18;;;;;;;42.08;13.80;;;;;;;;;;6303987;22;20041;-92
2022/10/18 13:27:51;;;;;;;41.00;13.32;;;;;;;;;;6276661;22;20012;-91
2022/10/18 13:30:20;;;;;;;37.70;13.20;;;;;;;;;;6276561;22;20027;-91
2022/10/18 13:32:58;;;;;;;35.67;12.50;;;;;;;;;;6276279;22;20003;-90
2022/10/18 13:36:04;;;;;;;34.50;13.20;;;;;;;;;;6276539;22;20011;-91
2022/10/18 13:38:49;;;;;;;36.03;12.57;;;;;;;;;;6303487;22;20033;-91
2022/10/18 13:44:36;;;;;;;36.30;12.57;;;;;;;;;;6294063;22;20007;-91
2022/10/18 13:47:02;;;;;;;36.25;12.25;;;;;;;;;;6278936;22;20010;-90
2022/10/18 13:49:43;;;;;;;31.13;12.35;;;;;;;;;;6277719;22;20082;-90
2022/10/18 13:52:17;;;;;;;39.95;12.27;;;;;;;;;;6278400;22;20000;-91
2022/10/18 13:54:43;;;;;;;25.25;11.52;;;;;;;;;;6278059;22;20015;-90
2022/10/18 13:57:18;;;;;;;30.83;11.88;;;;;;;;;;6278169;22;20042;-91
2022/10/18 14:02:41;;;;;;;36.92;12.45;;;;;;;;;;6290141;22;20029;-89
2022/10/18 14:05:17;;;;;;;36.38;12.15;;;;;;;;;;6279079;22;20014;-91
2022/10/18 14:07:46;;;;;;;27.98;10.93;;;;;;;;;;6278497;22;20007;-90
2022/10/18 14:10:54;;;;;;;;;;;;;;;;;;;;;
2022/10/18 14:13:25;;;;;;;32.50;12.65;;;;;;;;;;6305142;22;20074;-90
2022/10/18 14:16:18;;;;;;;24.95;10.05;;;;;;;;;;6277813;22;20022;-90
2022/10/18 14:22:24;;;;;;;24.00;9.47;;;;;;;;;;6262017;22;20150;-91
2022/10/18 14:25:06;;;;;;;22.90;9.35;;;;;;;;;;6304718;22;20007;-92
2022/10/18 14:28:05;;;;;;;;;;;;;;;;;;;;;
2022/10/18 14:30:39;;;;;;;21.05;10.25;;;;;;;;;;6301940;22;20027;-92
2022/10/18 14:33:05;;;;;;;30.80;10.85;;;;;;;;;;6286306;22;20025;-91
2022/10/18 14:35:34;;;;;;;26.63;9.73;;;;;;;;;;6305433;22;20418;-91
2022/10/18 14:38:00;;;;;;;27.63;11.00;;;;;;;;;;6304222;22;20006;-91
2022/10/18 14:40:32;;;;;;;26.80;9.73;;;;;;;;;;6277289;22;20006;-90
2022/10/18 14:43:18;;;;;;;28.58;10.10;;;;;;;;;;6277792;22;20003;-89
2022/10/18 14:46:10;;;;;;;27.05;10.30;;;;;;;;;;6277416;22;20005;-89
2022/10/18 14:48:39;;;;;;;25.33;9.85;;;;;;;;;;6278215;22;20007;-91
2022/10/18 14:51:18;;;;;;;29.02;10.88;;;;;;;;;;6278050;22;20003;-90